Time;durP1;ratioP1;P1;durP2;ratioP2;P2;SDS_P1;SDS_P2;PMS_P1;PMS_P2;Temp;Humidity;BMP_temperature;BMP_pressure;BME280_temperature;BME280_humidity;BME280_pressure;Samples;Min_cycle;Max_cycle;Signal;HPM_P1;HPM_P2
2021/12/01 00:02:20;;;;;;;12.98;8.30;;;4.60;99.90;;;;;;5289619;28;20028;-76
2021/12/01 00:04:51;;;;;;;15.43;9.88;;;4.60;99.90;;;;;;5290223;28;20016;-77
2021/12/01 00:07:22;;;;;;;11.57;7.65;;;4.40;99.90;;;;;;5288661;28;20058;-76
2021/12/01 00:09:53;;;;;;;12.13;7.18;;;4.30;99.90;;;;;;5289795;28;20027;-77
2021/12/01 00:12:24;;;;;;;8.60;6.15;;;4.50;99.90;;;;;;5290076;28;20028;-77
2021/12/01 00:14:54;;;;;;;9.90;7.03;;;4.50;99.90;;;;;;5289505;28;20015;-76
2021/12/01 00:17:26;;;;;;;11.15;7.55;;;4.50;99.90;;;;;;5289829;28;20387;-77
2021/12/01 00:19:59;;;;;;;12.27;6.95;;;4.30;99.90;;;;;;5289968;28;20027;-76
2021/12/01 00:22:30;;;;;;;9.45;6.20;;;4.50;99.90;;;;;;5289916;28;20486;-77
2021/12/01 00:25:01;;;;;;;10.15;6.75;;;4.50;99.90;;;;;;5289992;28;20094;-76
2021/12/01 00:27:32;;;;;;;8.43;5.95;;;4.50;99.90;;;;;;5289678;28;20027;-77
2021/12/01 00:30:04;;;;;;;8.77;5.88;;;4.40;99.90;;;;;;5289902;28;20076;-76
2021/12/01 00:32:36;;;;;;;9.45;6.32;;;4.50;99.90;;;;;;5289945;28;20539;-76
2021/12/01 00:35:09;;;;;;;8.27;6.13;;;4.50;99.90;;;;;;5289823;28;20129;-76
2021/12/01 00:37:41;;;;;;;9.30;6.53;;;4.60;99.90;;;;;;5289824;28;20039;-77
2021/12/01 00:40:12;;;;;;;9.30;6.35;;;4.30;99.90;;;;;;5289889;28;20563;-77
2021/12/01 00:42:44;;;;;;;10.00;6.40;;;4.40;99.90;;;;;;5289861;28;20040;-77
2021/12/01 00:45:20;;;;;;;9.63;6.47;;;4.40;99.90;;;;;;5293753;28;20023;-76
2021/12/01 00:47:54;;;;;;;8.90;6.43;;;4.20;99.90;;;;;;5294011;28;20032;-77
2021/12/01 00:50:31;;;;;;;12.05;6.93;;;4.10;99.90;;;;;;5293873;28;20023;-76
2021/12/01 00:53:05;;;;;;;9.48;6.70;;;4.20;99.90;;;;;;5293951;28;20084;-76
2021/12/01 00:55:36;;;;;;;15.48;10.82;;;4.20;99.90;;;;;;5293717;28;20016;-76
2021/12/01 00:58:07;;;;;;;14.25;9.60;;;4.20;99.90;;;;;;5293820;28;20026;-76
2021/12/01 01:00:39;;;;;;;10.80;7.63;;;4.20;99.90;;;;;;5293645;28;20471;-76
2021/12/01 01:45:40;;;;;;;14.00;9.23;;;2.80;99.90;;;;;;5298897;27;20417;-76
2021/12/01 01:48:13;;;;;;;13.90;10.25;;;2.60;99.90;;;;;;5266035;28;20032;-76
2021/12/01 01:50:44;;;;;;;13.77;9.90;;;2.40;99.90;;;;;;5266090;28;20028;-76
2021/12/01 01:53:20;;;;;;;13.32;9.10;;;2.30;99.90;;;;;;5265870;28;20035;-75
2021/12/01 01:55:55;;;;;;;16.58;11.02;;;2.40;99.90;;;;;;5265879;28;20028;-75
2021/12/01 01:58:27;;;;;;;14.57;10.00;;;2.20;99.90;;;;;;5265813;28;20009;-75
2021/12/01 02:01:06;;;;;;;16.80;10.10;;;2.50;99.90;;;;;;5265841;28;20040;-76
2021/12/01 02:03:42;;;;;;;15.80;10.27;;;2.20;99.90;;;;;;5265736;28;20027;-76
2021/12/01 02:06:21;;;;;;;13.68;10.13;;;2.20;99.90;;;;;;5265626;28;20070;-75
2021/12/01 02:08:56;;;;;;;15.82;11.10;;;2.30;99.90;;;;;;5265829;28;20097;-76
2021/12/01 02:11:28;;;;;;;17.52;10.50;;;2.10;99.90;;;;;;5265613;28;20021;-75
2021/12/01 02:13:59;;;;;;;16.20;10.93;;;2.20;99.90;;;;;;5265199;28;20032;-75
2021/12/01 02:16:31;;;;;;;16.02;11.10;;;2.10;99.90;;;;;;5265319;28;20059;-75
2021/12/01 02:19:02;;;;;;;13.70;10.30;;;2.00;99.90;;;;;;5265394;28;20015;-75
2021/12/01 02:21:34;;;;;;;18.38;11.35;;;1.90;99.90;;;;;;5265305;28;20025;-76
2021/12/01 02:24:08;;;;;;;18.77;11.75;;;1.80;99.90;;;;;;5265299;28;20463;-76
2021/12/01 02:26:44;;;;;;;23.42;13.18;;;1.70;99.90;;;;;;5265314;28;20416;-76
2021/12/01 02:29:17;;;;;;;28.58;18.08;;;1.70;99.90;;;;;;5265295;28;20020;-76
2021/12/01 02:31:50;;;;;;;26.60;16.70;;;1.40;99.90;;;;;;5265240;28;20028;-76
2021/12/01 02:34:23;;;;;;;22.83;15.52;;;1.30;99.90;;;;;;5265032;28;20032;-76
2021/12/01 02:36:57;;;;;;;30.05;18.27;;;1.80;99.90;;;;;;5264878;28;20108;-75
2021/12/01 02:39:28;;;;;;;17.52;12.35;;;1.70;99.90;;;;;;5265065;28;20028;-75
2021/12/01 02:42:05;;;;;;;18.42;12.45;;;1.50;99.90;;;;;;5265031;28;20505;-76
2021/12/01 02:44:36;;;;;;;24.10;14.95;;;1.30;99.90;;;;;;5261915;28;20098;-75
2021/12/01 02:47:07;;;;;;;23.75;16.05;;;1.50;99.90;;;;;;5250840;28;20078;-76
2021/12/01 02:49:39;;;;;;;23.15;15.45;;;1.50;99.90;;;;;;5249641;28;20029;-75
2021/12/01 02:52:10;;;;;;;27.27;16.05;;;1.60;99.90;;;;;;5250904;28;20082;-76
2021/12/01 02:54:40;;;;;;;29.08;16.92;;;1.60;99.90;;;;;;5250640;28;20036;-76
2021/12/01 02:57:12;;;;;;;30.02;18.65;;;1.70;99.90;;;;;;5250708;28;20021;-76
2021/12/01 02:59:43;;;;;;;28.02;17.30;;;2.10;99.90;;;;;;5250610;28;20029;-76
2021/12/01 03:02:15;;;;;;;27.52;15.82;;;2.00;99.90;;;;;;5250683;28;20029;-77
2021/12/01 03:04:46;;;;;;;26.83;17.75;;;1.40;99.90;;;;;;5250506;28;20055;-76
2021/12/01 03:07:17;;;;;;;25.65;16.90;;;1.40;99.90;;;;;;5250575;28;20053;-76
2021/12/01 03:09:48;;;;;;;40.97;23.40;;;1.10;99.90;;;;;;5250484;28;20024;-76
2021/12/01 03:12:19;;;;;;;37.67;22.05;;;1.10;99.90;;;;;;5250473;28;20460;-75
2021/12/01 03:14:51;;;;;;;34.00;20.33;;;1.30;99.90;;;;;;5250180;28;20048;-76
2021/12/01 03:17:22;;;;;;;34.65;19.55;;;1.00;99.90;;;;;;5250305;28;20024;-76
2021/12/01 03:19:53;;;;;;;64.10;33.13;;;0.80;99.90;;;;;;5250237;28;20055;-76
2021/12/01 03:22:25;;;;;;;40.65;24.05;;;0.50;99.90;;;;;;5250285;28;20032;-76
2021/12/01 03:24:56;;;;;;;31.63;19.40;;;0.80;99.90;;;;;;5250259;28;20050;-76
2021/12/01 03:27:27;;;;;;;32.20;20.75;;;1.00;99.90;;;;;;5250165;28;20111;-75
2021/12/01 03:29:58;;;;;;;27.83;17.52;;;1.00;99.90;;;;;;5250109;28;20031;-75
2021/12/01 03:32:29;;;;;;;26.50;17.30;;;1.10;99.90;;;;;;5250104;28;20111;-75
2021/12/01 03:35:00;;;;;;;29.70;17.20;;;1.50;99.90;;;;;;5249858;28;20040;-76
2021/12/01 03:37:31;;;;;;;34.65;19.45;;;1.30;99.90;;;;;;5250147;28;20105;-75
2021/12/01 03:40:03;;;;;;;34.20;19.05;;;1.00;99.90;;;;;;5249899;28;20408;-76
2021/12/01 03:42:34;;;;;;;32.08;19.05;;;1.30;99.90;;;;;;5249911;28;20025;-77
2021/12/01 03:45:06;;;;;;;28.00;18.35;;;1.20;99.90;;;;;;5249384;28;20048;-77
2021/12/01 03:47:37;;;;;;;34.90;19.85;;;1.20;99.90;;;;;;5249829;28;20032;-76
2021/12/01 03:50:08;;;;;;;39.05;20.58;;;1.10;99.90;;;;;;5249611;28;20024;-78
2021/12/01 03:52:40;;;;;;;32.00;18.63;;;1.10;99.90;;;;;;5249667;28;20032;-76
2021/12/01 03:55:11;;;;;;;35.25;19.25;;;0.90;99.90;;;;;;5249347;28;20043;-77
2021/12/01 03:57:42;;;;;;;33.28;19.48;;;1.00;99.90;;;;;;5248656;28;20028;-79
2021/12/01 04:00:15;;;;;;;35.40;17.98;;;1.20;99.90;;;;;;5249700;28;20035;-76
2021/12/01 04:02:46;;;;;;;36.83;20.00;;;1.20;99.90;;;;;;5249348;28;20024;-77
2021/12/01 04:05:17;;;;;;;34.40;17.77;;;1.00;99.90;;;;;;5249381;28;20020;-77
2021/12/01 04:07:48;;;;;;;31.13;17.75;;;1.30;99.90;;;;;;5249409;28;20433;-77
2021/12/01 04:10:20;;;;;;;36.72;18.98;;;1.30;99.90;;;;;;5249269;28;20028;-77
2021/12/01 04:12:50;;;;;;;45.08;22.88;;;1.20;99.90;;;;;;5249074;28;20032;-77
2021/12/01 04:15:21;;;;;;;32.13;17.48;;;1.00;99.90;;;;;;5248939;28;20032;-77
2021/12/01 04:17:52;;;;;;;27.23;15.70;;;1.20;99.90;;;;;;5249117;28;20020;-77
2021/12/01 04:20:23;;;;;;;30.65;16.65;;;1.20;99.90;;;;;;5249107;28;20485;-78
2021/12/01 04:22:54;;;;;;;27.80;16.00;;;1.20;99.90;;;;;;5248977;28;20119;-77
2021/12/01 04:25:25;;;;;;;29.23;16.48;;;0.90;99.90;;;;;;5249043;28;20027;-77
2021/12/01 04:27:56;;;;;;;30.23;16.05;;;0.90;99.90;;;;;;5248922;28;20028;-78
2021/12/01 04:30:27;;;;;;;26.10;15.95;;;0.70;99.90;;;;;;5248908;28;20024;-77
2021/12/01 04:32:58;;;;;;;25.00;14.23;;;1.10;99.90;;;;;;5248731;28;20031;-78
2021/12/01 04:35:30;;;;;;;28.30;13.73;;;1.20;99.90;;;;;;5248706;28;20025;-78
2021/12/01 04:38:01;;;;;;;25.80;14.27;;;1.40;99.90;;;;;;5248787;28;20480;-78
2021/12/01 04:40:32;;;;;;;25.15;14.57;;;1.30;99.90;;;;;;5248749;28;20028;-77
2021/12/01 04:43:03;;;;;;;31.08;15.90;;;0.90;99.90;;;;;;5248459;28;20086;-78
2021/12/01 04:45:36;;;;;;;21.95;12.85;;;1.10;99.90;;;;;;5248377;28;20044;-78
2021/12/01 04:48:07;;;;;;;21.50;13.68;;;1.30;99.90;;;;;;5247365;28;20020;-77
2021/12/01 04:50:38;;;;;;;21.17;13.48;;;1.20;99.90;;;;;;5247442;28;20039;-78
2021/12/01 04:53:09;;;;;;;18.15;11.32;;;1.00;99.90;;;;;;5248374;28;20021;-78
2021/12/01 04:55:40;;;;;;;22.63;13.30;;;1.50;99.90;;;;;;5247048;28;20059;-78
2021/12/01 04:58:11;;;;;;;17.60;12.40;;;1.20;99.90;;;;;;5247251;28;20039;-76
2021/12/01 05:00:42;;;;;;;17.30;10.98;;;1.40;99.90;;;;;;5248380;28;20040;-78
2021/12/01 05:03:13;;;;;;;18.55;10.32;;;1.40;99.90;;;;;;5248464;28;20013;-77
2021/12/01 05:05:43;;;;;;;15.70;10.27;;;1.30;99.90;;;;;;5248226;28;20029;-77
2021/12/01 05:08:14;;;;;;;17.10;9.90;;;1.50;99.90;;;;;;5248133;28;20017;-77
2021/12/01 05:10:45;;;;;;;17.75;10.60;;;1.80;99.90;;;;;;5247042;28;20467;-77
2021/12/01 05:13:17;;;;;;;14.40;8.68;;;1.60;99.90;;;;;;5246757;28;20515;-77
2021/12/01 05:15:48;;;;;;;14.60;8.05;;;1.60;99.90;;;;;;5248115;28;20036;-77
2021/12/01 05:18:18;;;;;;;29.08;13.93;;;1.80;99.90;;;;;;5248403;28;20078;-77
2021/12/01 05:20:49;;;;;;;21.75;10.20;;;1.70;99.90;;;;;;5247040;28;20082;-76
2021/12/01 05:23:20;;;;;;;28.73;16.48;;;1.60;99.90;;;;;;5248338;28;20099;-77
2021/12/01 05:25:51;;;;;;;13.07;8.80;;;1.60;99.90;;;;;;5247989;28;20032;-76
2021/12/01 05:28:22;;;;;;;17.55;10.70;;;1.60;99.90;;;;;;5248207;28;20025;-76
2021/12/01 05:30:53;;;;;;;15.95;9.55;;;1.50;99.90;;;;;;5248105;28;20491;-76
2021/12/01 05:33:24;;;;;;;22.00;11.23;;;1.30;99.90;;;;;;5248011;28;20503;-76
2021/12/01 05:35:55;;;;;;;28.02;15.65;;;1.40;99.90;;;;;;5247719;28;20119;-76
2021/12/01 05:38:26;;;;;;;12.98;8.32;;;1.40;99.90;;;;;;5247937;28;20112;-76
2021/12/01 05:40:57;;;;;;;19.38;10.85;;;1.50;99.90;;;;;;5248084;28;20032;-77
2021/12/01 05:43:28;;;;;;;16.98;9.75;;;1.50;99.90;;;;;;5246238;28;20027;-76
2021/12/01 05:45:59;;;;;;;55.50;25.13;;;1.50;99.90;;;;;;5246623;28;20072;-76
2021/12/01 05:48:30;;;;;;;24.45;13.95;;;1.50;99.90;;;;;;5247942;28;20051;-76
2021/12/01 05:51:01;;;;;;;15.13;8.55;;;1.60;99.90;;;;;;5247959;28;20028;-76
2021/12/01 05:53:32;;;;;;;15.90;9.68;;;1.80;99.90;;;;;;5247721;28;20028;-76
2021/12/01 05:56:04;;;;;;;11.63;6.95;;;1.80;99.90;;;;;;5247670;28;20025;-76
2021/12/01 05:58:35;;;;;;;12.93;7.47;;;2.10;99.90;;;;;;5247812;28;20054;-76
2021/12/01 06:01:05;;;;;;;14.75;8.15;;;2.20;99.90;;;;;;5247755;28;20024;-76
2021/12/01 06:03:38;;;;;;;17.38;8.07;;;2.30;99.90;;;;;;5247791;28;20425;-76
2021/12/01 06:06:09;;;;;;;13.60;8.05;;;2.30;99.90;;;;;;5247649;28;20417;-76
2021/12/01 06:08:40;;;;;;;16.73;8.25;;;2.50;99.90;;;;;;5247696;28;20029;-76
2021/12/01 06:11:11;;;;;;;12.27;7.03;;;2.60;99.90;;;;;;5247669;28;20475;-76
2021/12/01 06:13:44;;;;;;;16.33;8.80;;;2.70;99.90;;;;;;5247316;28;20025;-76
2021/12/01 06:16:15;;;;;;;13.88;7.93;;;2.90;99.90;;;;;;5247567;28;20110;-76
2021/12/01 06:18:45;;;;;;;13.57;7.80;;;3.00;99.90;;;;;;5247748;28;20459;-76
2021/12/01 06:21:17;;;;;;;22.88;12.20;;;3.00;99.90;;;;;;5250155;28;20105;-76
2021/12/01 06:23:48;;;;;;;13.38;9.02;;;2.90;99.90;;;;;;5251510;28;20357;-76
2021/12/01 06:26:19;;;;;;;27.85;15.27;;;2.90;99.90;;;;;;5251381;28;20130;-76
2021/12/01 06:28:51;;;;;;;20.48;10.05;;;2.90;99.90;;;;;;5251301;28;20016;-76
2021/12/01 06:31:21;;;;;;;17.77;9.38;;;2.90;99.90;;;;;;5251246;28;20040;-75
2021/12/01 06:33:52;;;;;;;18.63;8.23;;;3.00;99.90;;;;;;5251181;28;20028;-76
2021/12/01 06:36:23;;;;;;;15.80;9.13;;;3.10;99.90;;;;;;5251192;28;20032;-76
2021/12/01 06:38:54;;;;;;;19.08;10.43;;;3.10;99.90;;;;;;5251161;28;20491;-76
2021/12/01 06:41:25;;;;;;;16.67;8.18;;;3.10;99.90;;;;;;5251159;28;20021;-76
2021/12/01 06:43:56;;;;;;;17.67;9.70;;;3.30;99.90;;;;;;5250614;28;20037;-76
2021/12/01 06:46:28;;;;;;;19.58;10.93;;;3.40;99.90;;;;;;5251027;28;20470;-76
2021/12/01 06:48:59;;;;;;;20.25;10.38;;;3.40;99.90;;;;;;5250940;28;20032;-76
2021/12/01 06:51:30;;;;;;;15.60;8.63;;;3.70;99.90;;;;;;5250899;28;20111;-76
2021/12/01 06:54:01;;;;;;;18.75;8.70;;;3.60;99.90;;;;;;5249503;28;20513;-76
2021/12/01 06:56:31;;;;;;;16.08;9.43;;;3.70;99.90;;;;;;5250698;28;20017;-77
2021/12/01 06:59:03;;;;;;;19.60;10.43;;;3.80;99.90;;;;;;5250763;28;20017;-76
2021/12/01 07:01:34;;;;;;;23.33;11.45;;;3.80;99.90;;;;;;5250671;28;20100;-78
2021/12/01 07:04:04;;;;;;;17.63;9.15;;;3.70;99.90;;;;;;5250638;28;20127;-76
2021/12/01 07:06:35;;;;;;;14.68;8.48;;;3.70;99.90;;;;;;5250572;28;20028;-76
2021/12/01 07:09:07;;;;;;;18.08;8.55;;;3.70;99.90;;;;;;5250544;28;20033;-76
2021/12/01 07:11:37;;;;;;;19.85;8.60;;;3.90;99.90;;;;;;5250494;28;20021;-76
2021/12/01 07:14:08;;;;;;;14.45;10.43;;;3.70;99.90;;;;;;5250293;28;20090;-76
2021/12/01 07:16:39;;;;;;;16.15;8.25;;;3.70;99.90;;;;;;5250389;28;20056;-78
2021/12/01 07:19:10;;;;;;;15.00;8.50;;;3.70;99.90;;;;;;5250400;28;20467;-76
2021/12/01 07:21:41;;;;;;;17.92;8.95;;;3.70;99.90;;;;;;5250370;28;20021;-76
2021/12/01 07:24:12;;;;;;;15.63;8.30;;;3.80;99.90;;;;;;5250325;28;20111;-76
2021/12/01 07:26:43;;;;;;;16.02;9.00;;;3.80;99.90;;;;;;5250142;28;20070;-76
2021/12/01 07:29:15;;;;;;;14.75;8.05;;;3.90;99.90;;;;;;5250206;28;20020;-78
2021/12/01 07:31:46;;;;;;;17.48;9.35;;;3.90;99.90;;;;;;5250113;28;20479;-76
2021/12/01 07:34:17;;;;;;;16.70;8.45;;;4.00;99.90;;;;;;5249958;28;20024;-76
2021/12/01 07:36:48;;;;;;;13.88;8.30;;;4.00;99.90;;;;;;5248736;28;20483;-77
2021/12/01 07:39:19;;;;;;;21.02;10.65;;;4.20;99.90;;;;;;5249978;28;20568;-76
2021/12/01 07:41:50;;;;;;;22.25;11.85;;;4.20;99.90;;;;;;5249857;28;20048;-76
2021/12/01 07:44:21;;;;;;;12.68;7.38;;;4.40;99.90;;;;;;5249461;28;20136;-77
2021/12/01 07:46:52;;;;;;;16.58;8.52;;;4.40;99.90;;;;;;5249852;28;20052;-76
2021/12/01 07:49:23;;;;;;;45.80;17.95;;;4.40;99.90;;;;;;5248512;28;20117;-76
2021/12/01 07:51:54;;;;;;;14.75;8.32;;;4.60;99.90;;;;;;5249760;28;20035;-76
2021/12/01 07:54:25;;;;;;;12.25;7.03;;;4.60;99.90;;;;;;5249544;28;20029;-76
2021/12/01 07:56:55;;;;;;;23.10;11.55;;;4.70;99.90;;;;;;5249609;28;20367;-76
2021/12/01 07:59:26;;;;;;;37.97;17.15;;;4.60;99.90;;;;;;5249600;28;20020;-76
2021/12/01 08:01:58;;;;;;;13.40;7.53;;;4.80;99.90;;;;;;5249577;28;20020;-76
2021/12/01 08:04:29;;;;;;;23.88;14.02;;;4.80;99.90;;;;;;5249287;28;20044;-76
2021/12/01 08:07:01;;;;;;;27.77;14.65;;;4.80;99.90;;;;;;5249313;28;20090;-76
2021/12/01 08:09:32;;;;;;;36.53;17.10;;;4.90;99.90;;;;;;5249297;28;20077;-76
2021/12/01 08:12:03;;;;;;;29.98;15.77;;;5.00;99.90;;;;;;5249252;28;20016;-76
2021/12/01 08:14:34;;;;;;;20.02;10.68;;;5.10;99.90;;;;;;5248969;28;20549;-76
2021/12/01 08:17:05;;;;;;;22.27;9.15;;;5.10;99.90;;;;;;5249198;28;20013;-77
2021/12/01 08:19:36;;;;;;;16.48;7.70;;;5.20;99.90;;;;;;5249178;28;20032;-76
2021/12/01 08:22:09;;;;;;;18.67;8.27;;;5.40;99.90;;;;;;5249071;28;20507;-77
2021/12/01 08:24:39;;;;;;;16.30;7.25;;;5.50;99.90;;;;;;5248902;28;20060;-76
2021/12/01 08:27:10;;;;;;;13.90;6.85;;;5.60;99.90;;;;;;5249204;28;20063;-76
2021/12/01 08:29:41;;;;;;;15.68;8.50;;;5.70;99.90;;;;;;5248945;28;20031;-77
2021/12/01 08:32:12;;;;;;;12.23;6.78;;;5.90;99.90;;;;;;5248917;28;20028;-76
2021/12/01 08:34:47;;;;;;;12.50;6.13;;;5.90;99.90;;;;;;5248730;28;20116;-76
2021/12/01 08:37:20;;;;;;;14.90;5.95;;;6.00;99.90;;;;;;5248767;28;20487;-76
2021/12/01 08:39:52;;;;;;;13.13;5.85;;;6.10;99.90;;;;;;5248728;28;20029;-76
2021/12/01 08:42:23;;;;;;;15.20;6.05;;;6.30;99.90;;;;;;5248457;28;20082;-76
2021/12/01 08:44:54;;;;;;;12.38;6.53;;;6.40;99.90;;;;;;5248044;28;20052;-76
2021/12/01 08:47:25;;;;;;;11.45;5.78;;;6.60;99.90;;;;;;5248566;28;20024;-76
2021/12/01 08:49:56;;;;;;;9.75;5.57;;;6.70;99.90;;;;;;5248601;28;20074;-76
2021/12/01 08:52:27;;;;;;;12.63;5.95;;;6.80;99.90;;;;;;5248556;28;20028;-76
2021/12/01 08:54:58;;;;;;;11.40;6.30;;;7.00;99.90;;;;;;5248444;28;20119;-75
2021/12/01 08:57:29;;;;;;;11.68;6.50;;;7.10;99.90;;;;;;5248453;28;20475;-76
2021/12/01 09:00:00;;;;;;;11.13;6.22;;;7.30;99.90;;;;;;5248353;28;20035;-76
2021/12/01 09:02:30;;;;;;;9.60;5.50;;;7.60;99.90;;;;;;5248427;28;20413;-76
2021/12/01 09:05:01;;;;;;;11.68;5.28;;;8.10;99.90;;;;;;5248371;28;20025;-76
2021/12/01 09:07:32;;;;;;;36.53;21.20;;;8.00;99.90;;;;;;5248278;28;20063;-76
2021/12/01 09:10:04;;;;;;;23.23;13.77;;;8.00;99.90;;;;;;5248422;28;20024;-76
2021/12/01 09:12:38;;;;;;;10.52;5.93;;;7.90;99.90;;;;;;5246983;28;20505;-75
2021/12/01 09:15:09;;;;;;;8.88;5.63;;;7.80;99.90;;;;;;5248037;28;20033;-75
2021/12/01 09:17:40;;;;;;;15.77;8.40;;;7.90;99.90;;;;;;5248199;28;20043;-75
2021/12/01 09:20:12;;;;;;;17.42;10.50;;;7.70;99.90;;;;;;5248239;28;20031;-75
2021/12/01 09:22:43;;;;;;;6.68;4.55;;;7.90;99.90;;;;;;5248196;28;20059;-76
2021/12/01 09:25:13;;;;;;;10.98;5.10;;;8.20;99.90;;;;;;5248037;28;20055;-78
2021/12/01 09:27:46;;;;;;;10.40;4.60;;;8.50;99.90;;;;;;5248133;28;20059;-75
2021/12/01 09:30:17;;;;;;;8.80;5.05;;;9.20;99.90;;;;;;5248105;28;20020;-76
2021/12/01 09:32:48;;;;;;;9.57;5.85;;;9.40;99.90;;;;;;5248088;28;20021;-75
2021/12/01 09:35:19;;;;;;;9.65;4.63;;;9.70;99.90;;;;;;5247861;28;20502;-76
2021/12/01 09:37:50;;;;;;;8.55;4.45;;;10.30;99.90;;;;;;5248094;28;20035;-76
2021/12/01 09:40:21;;;;;;;7.20;3.58;;;10.00;99.90;;;;;;5247924;28;20104;-76
2021/12/01 09:42:55;;;;;;;10.90;4.70;;;10.00;99.90;;;;;;5247768;28;20024;-75
2021/12/01 09:45:27;;;;;;;7.75;3.33;;;10.00;99.90;;;;;;5247659;28;20127;-76
2021/12/01 09:47:58;;;;;;;5.82;4.10;;;10.20;98.70;;;;;;5247839;28;20048;-75
2021/12/01 09:50:29;;;;;;;5.55;3.40;;;10.60;99.90;;;;;;5247846;28;20021;-76
2021/12/01 09:53:00;;;;;;;9.32;3.40;;;10.50;95.50;;;;;;5247847;28;20070;-75
2021/12/01 09:55:30;;;;;;;9.38;3.80;;;10.60;92.50;;;;;;5249212;28;20034;-75
2021/12/01 09:58:12;;;;;;;14.45;8.38;;;10.80;95.80;;;;;;5251996;28;20175;-75
2021/12/01 10:00:53;;;;;;;6.90;4.47;;;11.00;91.40;;;;;;5251987;28;20107;-75
2021/12/01 10:03:24;;;;;;;8.15;4.25;;;10.80;95.50;;;;;;5251917;28;20081;-75
2021/12/01 10:08:41;;;;;;;23.48;12.57;;;10.80;94.00;;;;;;5251779;28;20039;-75
2021/12/01 10:11:21;;;;;;;7.72;3.60;;;11.50;89.80;;;;;;5251585;28;20035;-75
2021/12/01 10:14:00;;;;;;;7.05;3.58;;;11.00;88.10;;;;;;5251393;28;20045;-74
2021/12/01 10:16:43;;;;;;;10.20;4.05;;;10.70;90.20;;;;;;5251464;28;20107;-75
2021/12/01 10:19:16;;;;;;;5.95;3.90;;;11.30;93.30;;;;;;5251605;28;20025;-75
2021/12/01 10:21:50;;;;;;;19.13;12.55;;;11.20;91.10;;;;;;5251467;28;20048;-75
2021/12/01 10:24:24;;;;;;;9.18;4.50;;;11.40;90.10;;;;;;5251431;28;20515;-75
2021/12/01 10:26:57;;;;;;;6.50;3.97;;;11.00;92.90;;;;;;5251328;28;20357;-75
2021/12/01 10:29:34;;;;;;;6.18;3.72;;;11.50;92.40;;;;;;5251354;28;20391;-76
2021/12/01 10:32:06;;;;;;;11.93;5.18;;;11.70;90.90;;;;;;5251325;28;20025;-75
2021/12/01 10:34:41;;;;;;;5.75;3.88;;;12.00;90.30;;;;;;5251100;28;20033;-76
2021/12/01 10:37:31;;;;;;;5.75;3.53;;;12.10;90.30;;;;;;5251136;28;20031;-75
2021/12/01 10:40:03;;;;;;;6.43;3.58;;;11.90;91.50;;;;;;5251200;28;20024;-75
2021/12/01 10:42:55;;;;;;;7.50;4.95;;;11.60;91.90;;;;;;5251124;28;20028;-75
2021/12/01 10:45:42;;;;;;;14.30;11.50;;;11.80;91.40;;;;;;5250557;28;20128;-76
2021/12/01 10:48:25;;;;;;;9.25;5.93;;;12.30;88.50;;;;;;5250968;28;20028;-75
2021/12/01 10:50:56;;;;;;;5.93;2.75;;;12.60;89.60;;;;;;5250952;28;20037;-76
2021/12/01 10:53:27;;;;;;;9.55;4.47;;;13.00;83.80;;;;;;5250899;28;20040;-75
2021/12/01 10:56:01;;;;;;;3.70;2.15;;;12.80;85.60;;;;;;5250669;28;20044;-75
2021/12/01 10:58:33;;;;;;;4.53;2.50;;;12.00;83.60;;;;;;5250911;28;20020;-75
2021/12/01 11:01:06;;;;;;;2.75;2.28;;;12.00;84.60;;;;;;5250728;28;20035;-75
2021/12/01 11:03:45;;;;;;;4.15;2.20;;;12.00;82.40;;;;;;5250668;28;20032;-76
2021/12/01 11:06:21;;;;;;;4.60;2.10;;;12.00;79.90;;;;;;5250102;28;20036;-74
2021/12/01 11:08:58;;;;;;;4.75;2.22;;;11.60;78.90;;;;;;5250717;28;20483;-75
2021/12/01 11:11:43;;;;;;;3.28;1.70;;;12.00;77.40;;;;;;5250540;28;20020;-75
2021/12/01 11:14:19;;;;;;;5.22;3.47;;;11.80;78.70;;;;;;5250247;28;20438;-75
2021/12/01 11:16:50;;;;;;;5.70;2.55;;;11.40;80.50;;;;;;5250265;28;20074;-76
2021/12/01 11:19:33;;;;;;;2.78;1.98;;;11.10;81.30;;;;;;5250386;28;20037;-76
2021/12/01 11:22:27;;;;;;;4.53;2.58;;;12.60;79.80;;;;;;5250299;28;20112;-76
2021/12/01 11:25:37;;;;;;;10.32;6.32;;;12.10;72.90;;;;;;5250345;28;20489;-75
2021/12/01 11:28:13;;;;;;;17.60;8.93;;;12.60;70.90;;;;;;5247946;28;20029;-76
2021/12/01 11:30:46;;;;;;;14.95;6.97;;;12.30;71.40;;;;;;5248068;28;20403;-75
2021/12/01 11:33:20;;;;;;;3.85;2.90;;;12.20;70.90;;;;;;5247866;28;20033;-75
2021/12/01 11:35:54;;;;;;;4.95;1.85;;;12.20;71.10;;;;;;5247685;28;20102;-76
2021/12/01 11:38:26;;;;;;;5.68;2.50;;;11.70;72.80;;;;;;5247831;28;20031;-75
2021/12/01 11:40:58;;;;;;;4.50;2.00;;;12.20;74.40;;;;;;5247869;28;20060;-76
2021/12/01 11:43:30;;;;;;;2.70;1.75;;;12.40;72.60;;;;;;5247481;28;20051;-75
2021/12/01 11:46:02;;;;;;;4.93;2.55;;;12.10;69.30;;;;;;5247581;28;20036;-75
2021/12/01 11:48:40;;;;;;;3.58;1.85;;;12.20;67.10;;;;;;5247702;28;20055;-76
2021/12/01 11:51:14;;;;;;;5.40;2.20;;;12.10;66.80;;;;;;5247525;28;20024;-76
2021/12/01 11:53:56;;;;;;;5.10;2.88;;;12.40;66.30;;;;;;5247443;28;20111;-76
2021/12/01 11:56:33;;;;;;;8.70;4.80;;;12.40;67.20;;;;;;5247281;28;20033;-76
2021/12/01 11:59:13;;;;;;;4.90;2.83;;;12.90;66.20;;;;;;5248610;28;20059;-76
2021/12/01 12:01:52;;;;;;;2.13;1.45;;;12.30;66.60;;;;;;5249577;28;20056;-76
2021/12/01 12:04:24;;;;;;;4.38;1.40;;;12.40;67.80;;;;;;5249553;28;20040;-76
2021/12/01 12:07:10;;;;;;;3.78;1.88;;;12.30;66.60;;;;;;5249390;28;20021;-76
2021/12/01 12:09:41;;;;;;;14.60;8.45;;;12.60;65.90;;;;;;5249383;28;20404;-76
2021/12/01 12:12:19;;;;;;;10.63;5.82;;;12.40;66.40;;;;;;5249328;28;20016;-76
2021/12/01 12:14:53;;;;;;;3.63;2.50;;;12.60;65.70;;;;;;5249011;28;20139;-76
2021/12/01 12:17:35;;;;;;;25.10;16.65;;;12.70;66.40;;;;;;5248460;28;20032;-76
2021/12/01 12:20:29;;;;;;;8.68;4.80;;;12.90;67.00;;;;;;5249003;28;20021;-76
2021/12/01 12:23:08;;;;;;;4.90;3.08;;;12.30;69.40;;;;;;5249097;28;20415;-76
2021/12/01 12:25:56;;;;;;;4.53;2.10;;;13.10;68.80;;;;;;5248969;28;20032;-76
2021/12/01 12:28:30;;;;;;;2.58;1.65;;;13.40;70.00;;;;;;5249014;28;20032;-76
2021/12/01 12:31:24;;;;;;;17.60;9.77;;;13.00;66.60;;;;;;5248980;28;20013;-76
2021/12/01 12:34:01;;;;;;;19.60;10.93;;;12.50;65.70;;;;;;5248852;28;20115;-76
2021/12/01 12:36:42;;;;;;;7.60;4.43;;;12.90;65.70;;;;;;5248772;28;20044;-76
2021/12/01 12:39:18;;;;;;;5.05;2.45;;;12.70;65.80;;;;;;5248798;28;20021;-76
2021/12/01 12:58:48;;;;;;;7.57;2.90;;;13.40;69.10;;;;;;5308287;27;20447;-80
2021/12/01 13:01:26;;;;;;;15.82;7.68;;;12.70;73.50;;;;;;5308301;28;20020;-77
2021/12/01 13:03:57;;;;;;;9.18;3.38;;;12.70;75.40;;;;;;5307842;28;20537;-80
2021/12/01 13:06:31;;;;;;;2.05;1.45;;;13.20;75.00;;;;;;5308040;28;20107;-80
2021/12/01 13:09:29;;;;;;;3.22;1.70;;;12.10;73.60;;;;;;5308095;28;20032;-80
2021/12/01 13:11:59;;;;;;;4.30;1.58;;;12.00;72.90;;;;;;5304421;28;20541;-80
2021/12/01 13:14:38;;;;;;;4.43;2.30;;;12.10;71.60;;;;;;5308034;28;20141;-81
2021/12/01 13:17:09;;;;;;;8.05;4.60;;;11.70;71.70;;;;;;5289710;28;20019;-80
2021/12/01 13:19:40;;;;;;;5.47;1.85;;;11.80;72.70;;;;;;5289550;28;20027;-80
2021/12/01 13:22:12;;;;;;;5.20;3.55;;;11.50;73.10;;;;;;5307549;28;20538;-81
2021/12/01 13:24:42;;;;;;;5.65;2.50;;;11.60;73.40;;;;;;5289485;28;20352;-82
2021/12/01 13:27:13;;;;;;;7.32;4.68;;;11.80;75.00;;;;;;5307503;28;20042;-81
2021/12/01 13:29:44;;;;;;;4.80;3.08;;;11.50;74.00;;;;;;5289222;28;20031;-81
2021/12/01 13:32:16;;;;;;;4.57;2.45;;;11.50;74.70;;;;;;5307684;28;20030;-80
2021/12/01 13:34:47;;;;;;;5.10;2.85;;;11.40;75.30;;;;;;5307568;28;20031;-81
2021/12/01 13:37:17;;;;;;;3.67;1.95;;;11.10;75.60;;;;;;5289241;28;20173;-82
2021/12/01 13:39:48;;;;;;;3.63;1.77;;;11.00;75.80;;;;;;5307524;28;20103;-82
2021/12/01 13:42:24;;;;;;;4.97;2.13;;;11.00;77.00;;;;;;5307562;28;20022;-82
2021/12/01 13:44:56;;;;;;;6.60;2.47;;;11.00;77.00;;;;;;5289047;28;20037;-82
2021/12/01 13:47:30;;;;;;;18.10;8.30;;;10.90;78.10;;;;;;5307396;28;20145;-82
2021/12/01 13:50:04;;;;;;;10.00;4.82;;;10.80;78.70;;;;;;5307087;28;20030;-81
2021/12/01 13:52:44;;;;;;;2.75;1.60;;;10.80;78.90;;;;;;5307288;28;20370;-82
2021/12/01 13:55:26;;;;;;;16.88;12.57;;;10.90;79.60;;;;;;5307349;28;20019;-80
2021/12/01 13:58:12;;;;;;;6.15;1.88;;;10.70;80.30;;;;;;5302733;28;20453;-82
2021/12/01 14:00:55;;;;;;;7.38;2.60;;;10.70;82.80;;;;;;5293028;28;20028;-82
2021/12/01 14:03:26;;;;;;;3.75;1.45;;;10.70;81.10;;;;;;5274646;28;20034;-82
2021/12/01 14:06:04;;;;;;;2.95;1.65;;;10.50;81.60;;;;;;5292804;28;20465;-82
2021/12/01 14:08:37;;;;;;;47.38;18.75;;;10.50;81.80;;;;;;5292751;28;20149;-81
2021/12/01 14:11:26;;;;;;;34.45;16.42;;;10.40;82.90;;;;;;5292803;28;20093;-82
2021/12/01 14:14:04;;;;;;;85.47;38.22;;;10.30;83.10;;;;;;5292670;28;20034;-82
2021/12/01 14:16:36;;;;;;;52.85;21.90;;;9.80;86.60;;;;;;5292657;28;20059;-80